sensor_id;sensor_type;location;lat;lon;timestamp;pressure;altitude;pressure_sealevel;temperature;humidity
52105;BME280;38103;42.776;23.112;2023-02-02T00:01:30;94011.59;;;1.95;69.04
52105;BME280;38103;42.776;23.112;2023-02-02T00:03:57;94013.84;;;1.98;69.19
52105;BME280;38103;42.776;23.112;2023-02-02T00:06:24;94013.09;;;2.05;68.97
52105;BME280;38103;42.776;23.112;2023-02-02T00:08:50;93967.34;;;1.72;68.67
52105;BME280;38103;42.776;23.112;2023-02-02T00:11:16;94030.81;;;2.09;67.91
52105;BME280;38103;42.776;23.112;2023-02-02T00:13:41;94023.47;;;1.98;67.20
52105;BME280;38103;42.776;23.112;2023-02-02T00:16:49;94019.25;;;1.58;68.22
52105;BME280;38103;42.776;23.112;2023-02-02T00:19:20;94024.47;;;1.58;68.36
52105;BME280;38103;42.776;23.112;2023-02-02T00:21:46;94038.28;;;1.43;69.27
52105;BME280;38103;42.776;23.112;2023-02-02T00:24:13;94003.84;;;1.33;71.55
52105;BME280;38103;42.776;23.112;2023-02-02T00:26:40;94027.59;;;1.53;74.33
52105;BME280;38103;42.776;23.112;2023-02-02T00:29:06;94028.50;;;1.61;75.33
52105;BME280;38103;42.776;23.112;2023-02-02T00:31:33;94023.41;;;1.67;75.35
52105;BME280;38103;42.776;23.112;2023-02-02T00:33:58;94026.28;;;1.73;75.26
52105;BME280;38103;42.776;23.112;2023-02-02T00:36:24;94020.03;;;1.82;74.41
52105;BME280;38103;42.776;23.112;2023-02-02T00:38:50;94018.84;;;1.85;74.22
52105;BME280;38103;42.776;23.112;2023-02-02T00:41:17;94012.81;;;1.84;73.96
52105;BME280;38103;42.776;23.112;2023-02-02T00:43:42;94011.38;;;1.82;73.49
52105;BME280;38103;42.776;23.112;2023-02-02T00:46:16;94014.47;;;1.85;73.89
52105;BME280;38103;42.776;23.112;2023-02-02T00:48:42;94021.47;;;1.85;73.28
52105;BME280;38103;42.776;23.112;2023-02-02T00:51:07;94007.81;;;1.83;73.26
52105;BME280;38103;42.776;23.112;2023-02-02T00:53:33;94004.38;;;1.82;73.26
52105;BME280;38103;42.776;23.112;2023-02-02T00:55:58;93971.78;;;1.48;72.88
52105;BME280;38103;42.776;23.112;2023-02-02T00:58:24;94004.09;;;1.77;72.75
52105;BME280;38103;42.776;23.112;2023-02-02T01:00:49;94011.78;;;1.55;73.70
52105;BME280;38103;42.776;23.112;2023-02-02T01:03:14;94004.97;;;1.54;73.12
52105;BME280;38103;42.776;23.112;2023-02-02T01:05:40;94011.50;;;1.50;73.29
52105;BME280;38103;42.776;23.112;2023-02-02T01:08:06;94007.00;;;1.43;73.15
52105;BME280;38103;42.776;23.112;2023-02-02T01:10:31;94006.56;;;1.16;73.49
52105;BME280;38103;42.776;23.112;2023-02-02T01:12:58;94001.00;;;1.19;73.48
52105;BME280;38103;42.776;23.112;2023-02-02T01:15:23;94004.91;;;1.24;73.35
52105;BME280;38103;42.776;23.112;2023-02-02T01:17:48;94001.34;;;1.16;73.58
52105;BME280;38103;42.776;23.112;2023-02-02T01:20:16;93999.31;;;1.03;74.90
52105;BME280;38103;42.776;23.112;2023-02-02T01:22:42;93996.31;;;0.91;75.99
52105;BME280;38103;42.776;23.112;2023-02-02T01:25:07;93994.53;;;0.92;75.87
52105;BME280;38103;42.776;23.112;2023-02-02T01:27:33;93996.03;;;0.86;75.63
52105;BME280;38103;42.776;23.112;2023-02-02T01:29:58;93994.75;;;0.82;75.83
52105;BME280;38103;42.776;23.112;2023-02-02T01:32:23;93997.75;;;0.70;76.60
52105;BME280;38103;42.776;23.112;2023-02-02T01:34:49;93998.44;;;0.64;76.49
52105;BME280;38103;42.776;23.112;2023-02-02T01:37:14;93993.91;;;0.58;76.81
52105;BME280;38103;42.776;23.112;2023-02-02T01:39:40;93989.75;;;0.48;77.12
52105;BME280;38103;42.776;23.112;2023-02-02T01:42:12;93986.03;;;0.42;77.63
52105;BME280;38103;42.776;23.112;2023-02-02T01:45:05;93992.72;;;0.37;78.05
52105;BME280;38103;42.776;23.112;2023-02-02T01:47:36;93981.38;;;0.29;78.76
52105;BME280;38103;42.776;23.112;2023-02-02T01:50:03;93980.94;;;0.26;79.18
52105;BME280;38103;42.776;23.112;2023-02-02T01:52:31;93984.38;;;0.09;79.59
52105;BME280;38103;42.776;23.112;2023-02-02T01:55:01;93970.16;;;-0.12;80.57
52105;BME280;38103;42.776;23.112;2023-02-02T01:57:44;93976.63;;;-0.07;81.15
52105;BME280;38103;42.776;23.112;2023-02-02T02:00:13;93944.22;;;-0.28;80.88
52105;BME280;38103;42.776;23.112;2023-02-02T02:02:41;93983.78;;;-0.01;80.87
52105;BME280;38103;42.776;23.112;2023-02-02T02:05:09;93982.50;;;-0.05;81.18
52105;BME280;38103;42.776;23.112;2023-02-02T02:07:37;93989.00;;;-0.09;81.83
52105;BME280;38103;42.776;23.112;2023-02-02T02:10:03;93953.00;;;-0.29;81.60
52105;BME280;38103;42.776;23.112;2023-02-02T02:12:28;93987.38;;;-0.10;81.85
52105;BME280;38103;42.776;23.112;2023-02-02T02:14:54;93988.38;;;-0.20;82.30
52105;BME280;38103;42.776;23.112;2023-02-02T02:34:52;93984.03;;;-0.36;86.35
52105;BME280;38103;42.776;23.112;2023-02-02T02:37:39;93980.94;;;-0.40;86.55
52105;BME280;38103;42.776;23.112;2023-02-02T02:43:23;93984.19;;;-0.46;86.15
52105;BME280;38103;42.776;23.112;2023-02-02T02:45:47;93983.41;;;-0.63;88.47
52105;BME280;38103;42.776;23.112;2023-02-02T02:48:13;93986.19;;;-0.65;89.27
52105;BME280;38103;42.776;23.112;2023-02-02T02:50:38;93983.91;;;-0.68;90.09
52105;BME280;38103;42.776;23.112;2023-02-02T02:53:07;93982.31;;;-0.77;90.84
52105;BME280;38103;42.776;23.112;2023-02-02T02:55:45;93980.34;;;-0.67;90.94
52105;BME280;38103;42.776;23.112;2023-02-02T02:58:17;93973.22;;;-0.73;91.52
52105;BME280;38103;42.776;23.112;2023-02-02T03:06:22;93967.53;;;-0.60;90.47
52105;BME280;38103;42.776;23.112;2023-02-02T03:09:12;93975.13;;;-0.50;90.35
52105;BME280;38103;42.776;23.112;2023-02-02T03:11:39;93975.78;;;-0.48;90.04
52105;BME280;38103;42.776;23.112;2023-02-02T03:14:05;93977.06;;;-0.44;89.32
52105;BME280;38103;42.776;23.112;2023-02-02T03:16:35;93975.78;;;-0.48;89.59
52105;BME280;38103;42.776;23.112;2023-02-02T03:19:01;93969.75;;;-0.49;89.09
52105;BME280;38103;42.776;23.112;2023-02-02T03:21:26;93980.31;;;-0.42;88.65
52105;BME280;38103;42.776;23.112;2023-02-02T03:23:51;93974.78;;;-0.39;88.50
52105;BME280;38103;42.776;23.112;2023-02-02T03:26:17;93980.00;;;-0.39;87.81
52105;BME280;38103;42.776;23.112;2023-02-02T03:28:42;93975.78;;;-0.48;88.10
52105;BME280;38103;42.776;23.112;2023-02-02T03:31:08;93986.16;;;-0.40;87.61
52105;BME280;38103;42.776;23.112;2023-02-02T03:33:35;93983.72;;;-0.50;88.37
52105;BME280;38103;42.776;23.112;2023-02-02T03:36:01;93982.59;;;-0.55;89.08
52105;BME280;38103;42.776;23.112;2023-02-02T03:38:26;93988.47;;;-0.70;90.00
52105;BME280;38103;42.776;23.112;2023-02-02T03:40:52;93983.75;;;-0.66;90.19
52105;BME280;38103;42.776;23.112;2023-02-02T03:43:21;93985.53;;;-0.59;89.95
52105;BME280;38103;42.776;23.112;2023-02-02T03:45:47;93981.97;;;-0.58;89.61
52105;BME280;38103;42.776;23.112;2023-02-02T03:48:12;93978.88;;;-0.53;89.02
52105;BME280;38103;42.776;23.112;2023-02-02T03:50:38;93976.28;;;-0.53;88.64
52105;BME280;38103;42.776;23.112;2023-02-02T03:53:03;93987.78;;;-0.47;88.12
52105;BME280;38103;42.776;23.112;2023-02-02T03:55:29;93982.59;;;-0.47;88.23
52105;BME280;38103;42.776;23.112;2023-02-02T03:57:55;93966.53;;;-0.59;87.60
52105;BME280;38103;42.776;23.112;2023-02-02T04:00:20;93987.78;;;-0.47;87.26
52105;BME280;38103;42.776;23.112;2023-02-02T04:02:46;93992.16;;;-0.48;87.25
52105;BME280;38103;42.776;23.112;2023-02-02T04:05:11;93994.94;;;-0.49;86.75
52105;BME280;38103;42.776;23.112;2023-02-02T04:07:36;93993.00;;;-0.55;87.30
52105;BME280;38103;42.776;23.112;2023-02-02T04:10:03;94001.28;;;-0.69;88.46
52105;BME280;38103;42.776;23.112;2023-02-02T04:12:28;93998.53;;;-0.67;88.79
52105;BME280;38103;42.776;23.112;2023-02-02T04:14:54;93945.47;;;-0.98;88.38
52105;BME280;38103;42.776;23.112;2023-02-02T04:17:19;94001.91;;;-0.66;88.20
52105;BME280;38103;42.776;23.112;2023-02-02T04:19:44;94002.41;;;-0.71;88.70
52105;BME280;38103;42.776;23.112;2023-02-02T04:22:10;94005.34;;;-0.83;88.76
52105;BME280;38103;42.776;23.112;2023-02-02T04:24:35;93995.25;;;-1.03;89.98
52105;BME280;38103;42.776;23.112;2023-02-02T04:27:00;93997.22;;;-1.21;91.33
52105;BME280;38103;42.776;23.112;2023-02-02T04:29:26;93993.31;;;-1.34;92.78
52105;BME280;38103;42.776;23.112;2023-02-02T04:31:51;94010.09;;;-1.47;93.95
52105;BME280;38103;42.776;23.112;2023-02-02T04:34:16;93988.81;;;-1.67;94.68
52105;BME280;38103;42.776;23.112;2023-02-02T04:36:42;94017.25;;;-1.49;95.22
52105;BME280;38103;42.776;23.112;2023-02-02T04:39:10;94014.50;;;-1.47;95.18
52105;BME280;38103;42.776;23.112;2023-02-02T04:41:35;94018.22;;;-1.41;95.14
52105;BME280;38103;42.776;23.112;2023-02-02T04:44:01;94011.44;;;-1.26;93.93
52105;BME280;38103;42.776;23.112;2023-02-02T04:46:26;93981.28;;;-1.35;93.24
52105;BME280;38103;42.776;23.112;2023-02-02T04:48:52;94006.75;;;-1.30;93.31
52105;BME280;38103;42.776;23.112;2023-02-02T04:51:18;94003.63;;;-1.51;93.67
52105;BME280;38103;42.776;23.112;2023-02-02T04:53:43;93998.28;;;-1.41;93.36
52105;BME280;38103;42.776;23.112;2023-02-02T04:56:12;94006.56;;;-1.29;92.38
52105;BME280;38103;42.776;23.112;2023-02-02T04:58:38;94011.13;;;-1.22;90.87
52105;BME280;38103;42.776;23.112;2023-02-02T05:01:15;93988.91;;;-1.33;90.86
52105;BME280;38103;42.776;23.112;2023-02-02T05:03:41;93971.69;;;-1.51;89.84
52105;BME280;38103;42.776;23.112;2023-02-02T05:06:06;93966.69;;;-1.53;89.75
52105;BME280;38103;42.776;23.112;2023-02-02T05:08:32;94017.97;;;-1.21;90.01
52105;BME280;38103;42.776;23.112;2023-02-02T05:10:57;94014.69;;;-1.24;89.47
52105;BME280;38103;42.776;23.112;2023-02-02T05:13:23;94007.84;;;-1.41;90.78
52105;BME280;38103;42.776;23.112;2023-02-02T05:15:48;94020.47;;;-1.47;91.45
52105;BME280;38103;42.776;23.112;2023-02-02T05:18:14;94016.63;;;-1.42;91.54
52105;BME280;38103;42.776;23.112;2023-02-02T05:20:39;94023.91;;;-1.38;91.41
52105;BME280;38103;42.776;23.112;2023-02-02T05:23:04;94012.09;;;-1.32;91.22
52105;BME280;38103;42.776;23.112;2023-02-02T05:25:30;94017.91;;;-1.38;91.13
52105;BME280;38103;42.776;23.112;2023-02-02T05:27:55;94022.97;;;-1.28;90.49
52105;BME280;38103;42.776;23.112;2023-02-02T05:30:21;94018.28;;;-1.25;89.49
52105;BME280;38103;42.776;23.112;2023-02-02T05:32:46;94022.47;;;-1.24;89.34
52105;BME280;38103;42.776;23.112;2023-02-02T05:35:11;94028.34;;;-1.21;88.74
52105;BME280;38103;42.776;23.112;2023-02-02T05:37:37;94028.97;;;-1.28;88.53
52105;BME280;38103;42.776;23.112;2023-02-02T05:40:02;94018.59;;;-1.28;88.70
52105;BME280;38103;42.776;23.112;2023-02-02T05:42:28;94025.06;;;-1.32;88.80
52105;BME280;38103;42.776;23.112;2023-02-02T05:44:53;94017.59;;;-1.35;88.91
52105;BME280;38103;42.776;23.112;2023-02-02T05:47:19;93980.41;;;-1.69;89.28
52105;BME280;38103;42.776;23.112;2023-02-02T05:49:45;94026.69;;;-1.31;88.43
52105;BME280;38103;42.776;23.112;2023-02-02T05:52:15;94023.78;;;-1.28;87.97
52105;BME280;38103;42.776;23.112;2023-02-02T05:54:42;94017.97;;;-1.21;88.62
52105;BME280;38103;42.776;23.112;2023-02-02T05:57:07;94027.34;;;-1.20;88.90
52105;BME280;38103;42.776;23.112;2023-02-02T05:59:33;94028.03;;;-1.10;88.67
52105;BME280;38103;42.776;23.112;2023-02-02T06:01:58;94028.66;;;-1.08;88.56
52105;BME280;38103;42.776;23.112;2023-02-02T06:04:23;94027.69;;;-1.15;88.93
52105;BME280;38103;42.776;23.112;2023-02-02T06:06:49;93955.94;;;-1.66;89.45
52105;BME280;38103;42.776;23.112;2023-02-02T06:09:14;94023.16;;;-1.21;89.43
52105;BME280;38103;42.776;23.112;2023-02-02T06:11:42;94019.56;;;-1.20;89.60
52105;BME280;38103;42.776;23.112;2023-02-02T06:14:07;94029.66;;;-1.00;89.48
52105;BME280;38103;42.776;23.112;2023-02-02T06:16:33;94036.16;;;-0.80;88.57
52105;BME280;38103;42.776;23.112;2023-02-02T06:18:58;94042.00;;;-0.61;88.06
52105;BME280;38103;42.776;23.112;2023-02-02T06:21:24;94047.34;;;-0.46;86.95
52105;BME280;38103;42.776;23.112;2023-02-02T06:23:50;94043.94;;;-0.38;86.03
52105;BME280;38103;42.776;23.112;2023-02-02T06:26:16;94051.72;;;-0.29;85.59
52105;BME280;38103;42.776;23.112;2023-02-02T06:28:42;94056.94;;;-0.21;85.50
52105;BME280;38103;42.776;23.112;2023-02-02T06:31:09;94066.00;;;-0.17;85.09
52105;BME280;38103;42.776;23.112;2023-02-02T06:33:35;94063.72;;;-0.12;85.00
52105;BME280;38103;42.776;23.112;2023-02-02T06:36:03;94064.38;;;-0.09;84.82
52105;BME280;38103;42.776;23.112;2023-02-02T06:38:29;94066.44;;;0.04;84.57
52105;BME280;38103;42.776;23.112;2023-02-02T06:40:58;94067.28;;;0.04;83.73
52105;BME280;38103;42.776;23.112;2023-02-02T06:43:24;94070.19;;;0.09;83.64
52105;BME280;38103;42.776;23.112;2023-02-02T06:45:49;94068.22;;;0.12;83.30
52105;BME280;38103;42.776;23.112;2023-02-02T06:48:15;94065.63;;;0.12;83.31
52105;BME280;38103;42.776;23.112;2023-02-02T06:50:40;94026.38;;;-0.19;83.29
52105;BME280;38103;42.776;23.112;2023-02-02T06:53:06;94079.56;;;0.19;82.90
52105;BME280;38103;42.776;23.112;2023-02-02T06:55:31;94073.22;;;0.21;82.64
52105;BME280;38103;42.776;23.112;2023-02-02T06:57:58;94072.91;;;0.25;82.55
52105;BME280;38103;42.776;23.112;2023-02-02T07:00:24;94071.09;;;0.33;82.08
52105;BME280;38103;42.776;23.112;2023-02-02T07:02:50;94072.03;;;0.41;82.04
52105;BME280;38103;42.776;23.112;2023-02-02T07:05:15;94070.41;;;0.40;81.69
52105;BME280;38103;42.776;23.112;2023-02-02T07:07:44;94076.56;;;0.47;81.26
52105;BME280;38103;42.776;23.112;2023-02-02T07:10:09;94066.97;;;0.48;80.77
52105;BME280;38103;42.776;23.112;2023-02-02T07:12:35;94076.72;;;0.54;81.60
52105;BME280;38103;42.776;23.112;2023-02-02T07:15:00;94076.03;;;0.60;80.44
52105;BME280;38103;42.776;23.112;2023-02-02T07:17:26;94076.81;;;0.69;80.43
52105;BME280;38103;42.776;23.112;2023-02-02T07:19:51;94063.44;;;0.72;80.46
52105;BME280;38103;42.776;23.112;2023-02-02T07:22:16;94073.44;;;0.92;79.90
52105;BME280;38103;42.776;23.112;2023-02-02T07:24:42;94074.63;;;1.13;79.63
52105;BME280;38103;42.776;23.112;2023-02-02T07:27:07;94065.72;;;1.31;77.82
52105;BME280;38103;42.776;23.112;2023-02-02T07:29:32;94064.66;;;1.40;77.69
52105;BME280;38103;42.776;23.112;2023-02-02T07:31:58;94060.13;;;1.58;77.08
52105;BME280;38103;42.776;23.112;2023-02-02T07:34:23;94043.06;;;1.55;75.71
52105;BME280;38103;42.776;23.112;2023-02-02T07:36:49;94051.09;;;1.69;74.88
52105;BME280;38103;42.776;23.112;2023-02-02T07:39:14;94051.91;;;1.69;74.77
52105;BME280;38103;42.776;23.112;2023-02-02T07:41:40;94063.50;;;1.66;74.55
52105;BME280;38103;42.776;23.112;2023-02-02T07:44:11;94057.56;;;1.73;73.83
52105;BME280;38103;42.776;23.112;2023-02-02T07:46:40;94060.94;;;1.97;74.15
52105;BME280;38103;42.776;23.112;2023-02-02T07:49:05;94031.91;;;2.00;72.91
52105;BME280;38103;42.776;23.112;2023-02-02T07:51:31;94057.25;;;2.67;73.63
52105;BME280;38103;42.776;23.112;2023-02-02T07:53:56;94053.13;;;2.95;71.89
52105;BME280;38103;42.776;23.112;2023-02-02T07:56:25;94053.34;;;3.15;70.26
52105;BME280;38103;42.776;23.112;2023-02-02T07:58:53;94045.91;;;3.34;68.92
52105;BME280;38103;42.776;23.112;2023-02-02T08:01:18;94043.53;;;3.39;67.96
52105;BME280;38103;42.776;23.112;2023-02-02T08:03:47;94012.81;;;3.19;66.48
52105;BME280;38103;42.776;23.112;2023-02-02T08:06:22;94036.13;;;3.21;64.67
52105;BME280;38103;42.776;23.112;2023-02-02T08:08:49;94024.50;;;3.23;65.69
52105;BME280;38103;42.776;23.112;2023-02-02T08:11:16;94033.13;;;3.46;64.49
52105;BME280;38103;42.776;23.112;2023-02-02T08:13:42;94021.59;;;3.62;63.40
52105;BME280;38103;42.776;23.112;2023-02-02T08:16:09;94026.97;;;3.54;63.69
52105;BME280;38103;42.776;23.112;2023-02-02T08:18:35;93974.09;;;3.08;63.67
52105;BME280;38103;42.776;23.112;2023-02-02T08:21:02;94022.50;;;3.26;62.97
52105;BME280;38103;42.776;23.112;2023-02-02T08:23:28;94018.44;;;3.23;63.43
52105;BME280;38103;42.776;23.112;2023-02-02T08:26:08;94023.63;;;3.16;64.23
52105;BME280;38103;42.776;23.112;2023-02-02T08:28:34;94003.16;;;2.98;64.40
52105;BME280;38103;42.776;23.112;2023-02-02T08:31:14;94023.63;;;3.16;65.75
52105;BME280;38103;42.776;23.112;2023-02-02T08:33:40;94027.59;;;3.12;65.02
52105;BME280;38103;42.776;23.112;2023-02-02T08:36:13;94022.34;;;3.12;65.69
52105;BME280;38103;42.776;23.112;2023-02-02T08:38:39;94016.25;;;3.05;66.83
52105;BME280;38103;42.776;23.112;2023-02-02T08:41:06;94018.75;;;3.13;68.16
52105;BME280;38103;42.776;23.112;2023-02-02T08:43:32;94012.81;;;3.19;68.69
52105;BME280;38103;42.776;23.112;2023-02-02T08:45:57;94015.53;;;3.55;69.41
52105;BME280;38103;42.776;23.112;2023-02-02T08:48:23;94020.03;;;3.97;69.59
52105;BME280;38103;42.776;23.112;2023-02-02T08:50:56;93972.09;;;4.25;68.85
52105;BME280;38103;42.776;23.112;2023-02-02T08:53:22;94001.72;;;4.88;66.58
52105;BME280;38103;42.776;23.112;2023-02-02T08:55:48;93998.97;;;5.17;64.85
52105;BME280;38103;42.776;23.112;2023-02-02T08:58:21;94000.63;;;5.45;61.20
52105;BME280;38103;42.776;23.112;2023-02-02T09:00:46;93996.56;;;5.63;61.40
52105;BME280;38103;42.776;23.112;2023-02-02T09:03:12;93996.97;;;5.74;60.48
52105;BME280;38103;42.776;23.112;2023-02-02T09:05:37;93987.09;;;5.76;58.18
52105;BME280;38103;42.776;23.112;2023-02-02T09:08:03;93976.00;;;5.74;59.85
52105;BME280;38103;42.776;23.112;2023-02-02T09:10:28;93987.06;;;6.03;59.17
52105;BME280;38103;42.776;23.112;2023-02-02T09:12:56;93985.63;;;6.21;58.20
52105;BME280;38103;42.776;23.112;2023-02-02T09:15:21;93979.94;;;6.24;58.41
52105;BME280;38103;42.776;23.112;2023-02-02T09:17:47;93975.84;;;6.48;57.49
52105;BME280;38103;42.776;23.112;2023-02-02T09:20:12;93969.34;;;6.58;57.89
52105;BME280;38103;42.776;23.112;2023-02-02T09:22:38;93967.78;;;6.43;57.60
52105;BME280;38103;42.776;23.112;2023-02-02T09:25:04;93973.22;;;6.48;57.32
52105;BME280;38103;42.776;23.112;2023-02-02T09:27:29;93984.28;;;6.57;57.87
52105;BME280;38103;42.776;23.112;2023-02-02T09:29:55;93967.78;;;6.89;58.98
52105;BME280;38103;42.776;23.112;2023-02-02T09:32:20;93960.00;;;7.08;58.40
52105;BME280;38103;42.776;23.112;2023-02-02T09:34:46;93962.50;;;7.22;56.35
52105;BME280;38103;42.776;23.112;2023-02-02T09:37:11;93962.53;;;7.47;56.28
52105;BME280;38103;42.776;23.112;2023-02-02T09:39:37;93965.22;;;7.66;55.19
52105;BME280;38103;42.776;23.112;2023-02-02T09:42:20;93964.56;;;7.71;54.92
52105;BME280;38103;42.776;23.112;2023-02-02T09:45:00;93951.91;;;7.61;55.09
52105;BME280;38103;42.776;23.112;2023-02-02T09:52:52;93942.22;;;7.80;52.40
52105;BME280;38103;42.776;23.112;2023-02-02T09:55:32;93945.72;;;7.48;52.19
52105;BME280;38103;42.776;23.112;2023-02-02T10:03:40;93941.09;;;7.18;52.86
52105;BME280;38103;42.776;23.112;2023-02-02T10:06:23;93936.41;;;6.95;53.40
52105;BME280;38103;42.776;23.112;2023-02-02T10:09:10;93930.34;;;6.94;54.71
52105;BME280;38103;42.776;23.112;2023-02-02T10:14:18;93921.66;;;7.19;54.77
52105;BME280;38103;42.776;23.112;2023-02-02T10:16:48;93911.31;;;7.24;54.39
52105;BME280;38103;42.776;23.112;2023-02-02T10:19:16;93909.75;;;7.17;54.36
52105;BME280;38103;42.776;23.112;2023-02-02T10:24:28;93896.31;;;7.32;53.01
52105;BME280;38103;42.776;23.112;2023-02-02T10:26:59;93894.53;;;7.00;53.69
52105;BME280;38103;42.776;23.112;2023-02-02T10:32:14;93889.56;;;6.85;54.28
52105;BME280;38103;42.776;23.112;2023-02-02T10:40:13;93875.06;;;6.75;55.59
52105;BME280;38103;42.776;23.112;2023-02-02T10:45:55;93852.25;;;7.01;55.85
52105;BME280;38103;42.776;23.112;2023-02-02T10:48:26;93831.09;;;7.15;54.32
52105;BME280;38103;42.776;23.112;2023-02-02T10:51:02;93844.00;;;7.23;53.42
52105;BME280;38103;42.776;23.112;2023-02-02T10:53:29;93849.97;;;7.31;52.94
52105;BME280;38103;42.776;23.112;2023-02-02T10:56:04;93847.00;;;7.46;54.24
52105;BME280;38103;42.776;23.112;2023-02-02T11:01:10;93828.69;;;7.96;54.73
52105;BME280;38103;42.776;23.112;2023-02-02T11:03:36;93830.63;;;8.19;53.22
52105;BME280;38103;42.776;23.112;2023-02-02T11:06:06;93770.13;;;8.12;51.37
52105;BME280;38103;42.776;23.112;2023-02-02T11:08:52;93823.16;;;8.47;50.41
52105;BME280;38103;42.776;23.112;2023-02-02T11:11:27;93789.28;;;8.20;49.01
52105;BME280;38103;42.776;23.112;2023-02-02T11:16:30;93826.94;;;8.70;48.93
52105;BME280;38103;42.776;23.112;2023-02-02T11:18:56;93785.38;;;8.53;49.33
52105;BME280;38103;42.776;23.112;2023-02-02T11:21:23;93827.19;;;8.80;49.05
52105;BME280;38103;42.776;23.112;2023-02-02T11:26:22;93812.38;;;8.79;46.48
52105;BME280;38103;42.776;23.112;2023-02-02T11:28:49;93805.41;;;8.97;49.27
52105;BME280;38103;42.776;23.112;2023-02-02T11:31:34;93812.53;;;9.09;47.19
52105;BME280;38103;42.776;23.112;2023-02-02T11:34:16;93811.16;;;8.94;45.80
52105;BME280;38103;42.776;23.112;2023-02-02T15:19:11;93986.44;;;0.54;100.00
52105;BME280;38103;42.776;23.112;2023-02-02T15:21:39;93976.72;;;0.57;100.00
52105;BME280;38103;42.776;23.112;2023-02-02T15:24:15;93953.16;;;0.18;100.00
52105;BME280;38103;42.776;23.112;2023-02-02T15:26:43;93983.69;;;0.24;100.00
52105;BME280;38103;42.776;23.112;2023-02-02T15:29:20;93975.25;;;0.22;100.00
52105;BME280;38103;42.776;23.112;2023-02-02T15:31:52;93962.91;;;0.16;100.00
52105;BME280;38103;42.776;23.112;2023-02-02T15:34:23;93965.03;;;0.12;100.00
52105;BME280;38103;42.776;23.112;2023-02-02T15:36:55;93971.06;;;0.13;100.00
52105;BME280;38103;42.776;23.112;2023-02-02T15:41:53;93977.88;;;0.14;100.00
52105;BME280;38103;42.776;23.112;2023-02-02T15:44:39;93976.88;;;0.23;100.00
52105;BME280;38103;42.776;23.112;2023-02-02T15:47:14;93983.47;;;0.34;100.00
52105;BME280;38103;42.776;23.112;2023-02-02T15:49:41;93982.69;;;0.33;100.00
52105;BME280;38103;42.776;23.112;2023-02-02T15:52:21;93994.03;;;0.32;100.00
52105;BME280;38103;42.776;23.112;2023-02-02T15:54:54;94003.81;;;0.30;100.00
52105;BME280;38103;42.776;23.112;2023-02-02T15:57:27;93968.78;;;0.09;100.00
52105;BME280;38103;42.776;23.112;2023-02-02T15:59:53;93977.19;;;0.20;100.00
52105;BME280;38103;42.776;23.112;2023-02-02T16:02:31;93989.56;;;0.18;100.00
52105;BME280;38103;42.776;23.112;2023-02-02T16:05:00;93997.19;;;0.19;100.00
52105;BME280;38103;42.776;23.112;2023-02-02T16:07:31;94005.16;;;0.18;100.00
52105;BME280;38103;42.776;23.112;2023-02-02T16:10:05;94006.44;;;0.22;100.00
52105;BME280;38103;42.776;23.112;2023-02-02T16:12:33;94007.72;;;0.26;100.00
52105;BME280;38103;42.776;23.112;2023-02-02T16:14:58;94008.19;;;0.30;100.00
52105;BME280;38103;42.776;23.112;2023-02-02T16:17:31;94008.03;;;0.31;100.00
52105;BME280;38103;42.776;23.112;2023-02-02T16:20:05;94003.81;;;0.30;100.00
52105;BME280;38103;42.776;23.112;2023-02-02T16:22:34;93991.78;;;0.29;100.00
52105;BME280;38103;42.776;23.112;2023-02-02T16:25:05;93992.41;;;0.31;100.00
52105;BME280;38103;42.776;23.112;2023-02-02T16:27:32;94003.13;;;0.37;100.00
52105;BME280;38103;42.776;23.112;2023-02-02T16:30:06;93997.59;;;0.40;100.00
52105;BME280;38103;42.776;23.112;2023-02-02T16:32:35;94001.53;;;0.36;100.00
52105;BME280;38103;42.776;23.112;2023-02-02T16:35:22;94005.22;;;0.41;100.00
52105;BME280;38103;42.776;23.112;2023-02-02T16:37:47;94012.16;;;0.49;100.00
52105;BME280;38103;42.776;23.112;2023-02-02T16:40:27;94025.47;;;0.54;100.00
52105;BME280;38103;42.776;23.112;2023-02-02T16:45:51;94012.44;;;0.63;100.00
52105;BME280;38103;42.776;23.112;2023-02-02T16:48:31;94032.31;;;0.55;100.00
52105;BME280;38103;42.776;23.112;2023-02-02T16:53:42;94019.31;;;0.55;100.00
52105;BME280;38103;42.776;23.112;2023-02-02T16:58:47;94054.06;;;0.63;100.00
52105;BME280;38103;42.776;23.112;2023-02-02T17:01:13;94054.41;;;0.60;100.00
52105;BME280;38103;42.776;23.112;2023-02-02T17:03:45;94060.28;;;0.53;100.00
52105;BME280;38103;42.776;23.112;2023-02-02T17:06:12;94056.69;;;0.54;100.00
52105;BME280;38103;42.776;23.112;2023-02-02T17:08:38;94071.97;;;0.58;100.00
52105;BME280;38103;42.776;23.112;2023-02-02T17:11:06;94077.19;;;0.58;100.00
52105;BME280;38103;42.776;23.112;2023-02-02T17:13:43;94066.16;;;0.47;100.00
52105;BME280;38103;42.776;23.112;2023-02-02T17:16:18;94064.03;;;0.51;100.00
52105;BME280;38103;42.776;23.112;2023-02-02T17:18:44;94060.63;;;0.50;100.00
52105;BME280;38103;42.776;23.112;2023-02-02T17:21:15;94063.41;;;0.49;100.00
52105;BME280;38103;42.776;23.112;2023-02-02T17:23:42;94071.50;;;0.54;100.00
52105;BME280;38103;42.776;23.112;2023-02-02T17:26:09;94025.75;;;0.28;100.00
52105;BME280;38103;42.776;23.112;2023-02-02T17:28:36;94072.91;;;0.65;100.00
52105;BME280;38103;42.776;23.112;2023-02-02T17:31:12;94077.16;;;0.66;100.00
52105;BME280;38103;42.776;23.112;2023-02-02T17:33:38;94096.63;;;0.70;100.00
52105;BME280;38103;42.776;23.112;2023-02-02T17:36:05;94111.28;;;0.71;100.00
52105;BME280;38103;42.776;23.112;2023-02-02T17:38:30;94112.25;;;0.70;100.00
52105;BME280;38103;42.776;23.112;2023-02-02T17:40:59;94104.63;;;0.69;100.00
52105;BME280;38103;42.776;23.112;2023-02-02T17:43:24;94095.81;;;0.70;100.00
52105;BME280;38103;42.776;23.112;2023-02-02T17:45:51;94090.47;;;0.71;100.00
52105;BME280;38103;42.776;23.112;2023-02-02T17:48:17;94089.47;;;0.72;100.00
52105;BME280;38103;42.776;23.112;2023-02-02T17:50:42;94052.31;;;0.55;100.00
52105;BME280;38103;42.776;23.112;2023-02-02T17:53:13;94082.66;;;0.71;100.00
52105;BME280;38103;42.776;23.112;2023-02-02T17:55:40;94080.69;;;0.73;100.00